createdAt,value
2022-08-07T00:02:37.512Z,12.81
2022-08-07T00:04:25.147Z,12.77
2022-08-07T00:07:40.228Z,12.71
2022-08-07T00:10:47.861Z,12.66
2022-08-07T00:13:44.818Z,12.63
2022-08-07T00:16:52.693Z,12.57
2022-08-07T00:20:02.709Z,12.59
2022-08-07T00:23:00.753Z,12.66
2022-08-07T00:26:18.843Z,12.84
2022-08-07T00:29:13.933Z,12.89
2022-08-07T00:32:28.476Z,12.96
2022-08-07T00:35:25.797Z,12.95
2022-08-07T00:38:34.313Z,12.81
2022-08-07T00:41:45.402Z,12.67
2022-08-07T00:44:46.605Z,12.64
2022-08-07T00:48:07.839Z,12.62
2022-08-07T00:51:01.179Z,12.70
2022-08-07T00:54:09.076Z,12.79
2022-08-07T00:57:09.331Z,12.79
2022-08-07T01:00:17.761Z,12.75
2022-08-07T01:03:55.928Z,12.62
2022-08-07T01:06:32.892Z,12.57
2022-08-07T01:10:04.231Z,12.56
2022-08-07T01:12:53.910Z,12.54
2022-08-07T01:16:01.337Z,12.51
2022-08-07T01:18:56.916Z,12.57
2022-08-07T01:22:08.919Z,12.54
2022-08-07T01:25:54.893Z,12.39
2022-08-07T01:28:15.698Z,12.15
2022-08-07T01:31:23.545Z,12.02
2022-08-07T01:34:31.759Z,11.90
2022-08-07T01:37:39.570Z,11.78
2022-08-07T01:40:49.201Z,11.67
2022-08-07T01:43:49.529Z,11.61
2022-08-07T01:46:57.867Z,11.59
2022-08-07T01:49:58.351Z,11.62
2022-08-07T01:53:09.122Z,11.64
2022-08-07T01:56:16.855Z,11.64
2022-08-07T01:59:24.707Z,11.65
2022-08-07T02:02:32.696Z,11.64
2022-08-07T02:05:48.135Z,11.57
2022-08-07T02:08:35.285Z,11.56
2022-08-07T02:12:02.806Z,11.50
2022-08-07T02:14:48.149Z,11.43
2022-08-07T02:17:57.713Z,11.41
2022-08-07T02:21:07.924Z,11.35
2022-08-07T02:24:12.023Z,11.29
2022-08-07T02:27:15.262Z,11.25
2022-08-07T02:30:23.661Z,11.17
2022-08-07T02:33:57.316Z,11.09
2022-08-07T02:36:38.533Z,11.06
2022-08-07T02:40:11.662Z,11.03
2022-08-07T02:42:51.515Z,10.99
2022-08-07T02:46:02.472Z,10.94
2022-08-07T02:49:10.658Z,10.86
2022-08-07T02:52:15.569Z,10.86
2022-08-07T02:55:28.436Z,10.86
2022-08-07T02:58:23.658Z,10.89
2022-08-07T03:01:35.398Z,10.86
2022-08-07T03:04:28.999Z,10.86
2022-08-07T03:08:05.410Z,10.91
2022-08-07T03:10:46.656Z,11.03
2022-08-07T03:13:49.999Z,11.09
2022-08-07T03:16:47.367Z,11.09
2022-08-07T03:19:55.518Z,11.09
2022-08-07T03:23:03.723Z,11.02
2022-08-07T03:26:15.672Z,10.95
2022-08-07T03:29:16.865Z,10.91
2022-08-07T03:32:25.186Z,10.86
2022-08-07T03:35:26.349Z,10.80
2022-08-07T03:38:34.357Z,10.76
2022-08-07T03:41:47.517Z,10.73
2022-08-07T03:44:47.168Z,10.71
2022-08-07T03:47:51.433Z,10.65
2022-08-07T03:50:59.382Z,10.63
2022-08-07T03:54:36.211Z,10.59
2022-08-07T03:58:08.829Z,10.53
2022-08-07T04:00:17.585Z,10.52
2022-08-07T04:03:18.671Z,10.52
2022-08-07T04:06:37.615Z,10.55
2022-08-07T04:09:45.206Z,10.58
2022-08-07T04:12:38.865Z,10.59
2022-08-07T04:15:48.943Z,10.63
2022-08-07T04:18:59.338Z,10.74
2022-08-07T04:21:59.080Z,10.80
2022-08-07T04:24:57.984Z,10.78
2022-08-07T04:28:06.158Z,10.77
2022-08-07T04:31:20.268Z,10.78
2022-08-07T04:34:24.234Z,10.80
2022-08-07T04:37:26.211Z,10.77
2022-08-07T04:40:51.217Z,10.78
2022-08-07T04:44:12.607Z,10.81
2022-08-07T04:47:03.912Z,10.84
2022-08-07T04:50:03.572Z,10.88
2022-08-07T04:52:56.576Z,10.94
2022-08-07T04:58:10.761Z,10.96
2022-08-07T05:00:11.221Z,10.99
2022-08-07T05:02:20.543Z,11.02
2022-08-07T05:05:53.193Z,11.07
2022-08-07T05:08:59.696Z,11.16
2022-08-07T05:11:58.094Z,11.19
2022-08-07T05:14:55.624Z,11.24
2022-08-07T05:17:52.994Z,11.34
2022-08-07T05:20:44.113Z,11.46
2022-08-07T05:23:52.372Z,11.56
2022-08-07T05:27:00.515Z,11.72
2022-08-07T05:30:08.464Z,11.87
2022-08-07T05:33:09.185Z,12.04
2022-08-07T05:36:22.581Z,12.15
2022-08-07T05:40:05.711Z,12.29
2022-08-07T05:42:33.418Z,12.41
2022-08-07T05:45:47.267Z,12.52
2022-08-07T05:48:36.857Z,12.60
2022-08-07T05:51:42.341Z,12.69
2022-08-07T05:54:55.493Z,12.79
2022-08-07T05:57:54.062Z,12.92
2022-08-07T06:01:05.069Z,13.03
2022-08-07T06:04:03.704Z,13.18
2022-08-07T06:07:32.675Z,13.37
2022-08-07T06:10:17.273Z,13.55
2022-08-07T06:14:10.444Z,13.74
2022-08-07T06:16:32.249Z,13.94
2022-08-07T06:19:57.745Z,14.13
2022-08-07T06:23:01.728Z,14.32
2022-08-07T06:25:54.355Z,14.53
2022-08-07T06:28:52.720Z,14.72
2022-08-07T06:32:01.605Z,14.93
2022-08-07T06:35:10.513Z,15.12
2022-08-07T06:38:20.426Z,15.27
2022-08-07T06:41:18.801Z,15.39
2022-08-07T06:44:24.214Z,15.46
2022-08-07T06:47:48.113Z,15.60
2022-08-07T06:50:37.330Z,15.75
2022-08-07T06:55:27.139Z,15.84
2022-08-07T06:56:52.646Z,15.93
2022-08-07T07:00:13.372Z,16.01
2022-08-07T07:03:10.865Z,16.18
2022-08-07T07:06:11.305Z,16.37
2022-08-07T07:09:09.672Z,16.50
2022-08-07T07:12:24.680Z,16.60
2022-08-07T07:15:23.888Z,16.74
2022-08-07T07:18:47.260Z,16.93
2022-08-07T07:22:04.072Z,17.13
2022-08-07T07:24:34.290Z,17.36
2022-08-07T07:27:58.374Z,17.50
2022-08-07T07:30:48.559Z,17.69
2022-08-07T07:33:59.134Z,17.85
2022-08-07T07:37:21.489Z,17.95
2022-08-07T07:40:15.097Z,18.03
2022-08-07T07:43:18.518Z,18.21
2022-08-07T07:46:37.406Z,18.47
2022-08-07T07:50:33.019Z,18.54
2022-08-07T07:52:25.653Z,18.70
2022-08-07T07:55:37.775Z,18.84
2022-08-07T07:58:40.875Z,18.97
2022-08-07T08:02:02.576Z,19.06
2022-08-07T08:04:54.957Z,19.25
2022-08-07T08:08:03.103Z,19.50
2022-08-07T08:11:16.100Z,19.75
2022-08-07T08:14:15.172Z,19.84
2022-08-07T08:17:57.374Z,19.88
2022-08-07T08:20:31.853Z,19.87
2022-08-07T08:23:29.392Z,19.78
2022-08-07T08:26:31.783Z,20.00
2022-08-07T08:29:54.195Z,20.20
2022-08-07T08:32:49.074Z,20.35
2022-08-07T08:35:47.017Z,20.49
2022-08-07T08:38:47.706Z,20.65
2022-08-07T08:41:59.022Z,20.77
2022-08-07T08:44:56.878Z,20.95
2022-08-07T08:48:05.127Z,21.01
2022-08-07T08:51:14.721Z,21.01
2022-08-07T08:54:18.475Z,21.06
2022-08-07T08:57:26.707Z,21.21
2022-08-07T09:00:28.625Z,21.39
2022-08-07T09:03:47.524Z,21.26
2022-08-07T09:06:47.958Z,21.30
2022-08-07T09:09:47.504Z,21.57
2022-08-07T09:12:55.703Z,21.64
2022-08-07T09:16:24.457Z,21.79
2022-08-07T09:19:50.625Z,21.71
2022-08-07T09:24:27.059Z,21.60
2022-08-07T09:25:20.586Z,21.63
2022-08-07T09:30:00.712Z,21.66
2022-08-07T09:31:26.757Z,21.85
2022-08-07T09:34:32.688Z,21.95
2022-08-07T09:37:53.403Z,22.14
2022-08-07T09:40:46.545Z,22.29
2022-08-07T09:44:06.133Z,22.28
2022-08-07T09:47:49.623Z,22.32
2022-08-07T09:50:04.199Z,22.50
2022-08-07T09:53:04.768Z,22.60
2022-08-07T09:56:13.523Z,22.59
2022-08-07T09:59:21.695Z,22.71
2022-08-07T10:02:19.529Z,22.93
2022-08-07T10:05:21.355Z,22.93
2022-08-07T10:08:26.738Z,23.09
2022-08-07T10:12:02.213Z,23.17
2022-08-07T10:14:39.319Z,23.04
2022-08-07T10:18:01.805Z,23.26
2022-08-07T10:20:52.340Z,23.61
2022-08-07T10:24:05.347Z,24.05
2022-08-07T10:27:06.668Z,24.42
2022-08-07T10:30:12.157Z,24.68
2022-08-07T10:33:10.022Z,25.06
2022-08-07T10:36:12.582Z,25.49
2022-08-07T10:39:20.958Z,25.39
2022-08-07T10:42:31.097Z,25.06
2022-08-07T10:45:45.385Z,25.17
2022-08-07T10:48:34.890Z,25.13
2022-08-07T10:52:01.476Z,25.05
2022-08-07T10:55:01.260Z,25.28
2022-08-07T10:57:56.059Z,25.94
2022-08-07T11:01:11.752Z,26.18
2022-08-07T11:04:23.443Z,25.71
2022-08-07T11:07:24.859Z,25.22
2022-08-07T11:10:19.491Z,25.19
2022-08-07T11:14:42.035Z,25.61
2022-08-07T11:16:33.223Z,25.94
2022-08-07T11:19:41.136Z,26.40
2022-08-07T11:22:49.255Z,26.09
2022-08-07T11:25:57.636Z,25.98
2022-08-07T11:29:02.605Z,26.24
2022-08-07T11:32:03.469Z,25.69
2022-08-07T11:35:12.838Z,25.10
2022-08-07T11:38:17.598Z,24.68
2022-08-07T11:41:18.233Z,24.49
2022-08-07T11:44:21.162Z,24.37
2022-08-07T11:47:38.820Z,24.05
2022-08-07T11:50:36.358Z,24.05
2022-08-07T11:53:43.082Z,24.05
2022-08-07T11:56:46.199Z,23.92
2022-08-07T12:00:11.748Z,24.16
2022-08-07T12:02:55.391Z,24.54
2022-08-07T12:06:39.165Z,24.49
2022-08-07T12:09:09.482Z,24.64
2022-08-07T12:12:14.165Z,24.52
2022-08-07T12:15:46.529Z,24.39
2022-08-07T12:18:29.842Z,24.13
2022-08-07T12:22:36.711Z,23.77
2022-08-07T12:24:37.475Z,23.61
2022-08-07T12:28:09.021Z,23.60
2022-08-07T12:30:46.543Z,23.87
2022-08-07T12:33:56.562Z,24.13
2022-08-07T12:36:50.393Z,24.52
2022-08-07T12:39:59.624Z,24.94
2022-08-07T12:43:09.896Z,25.35
2022-08-07T12:46:26.399Z,25.52
2022-08-07T12:49:25.446Z,25.97
2022-08-07T12:52:29.356Z,26.37
2022-08-07T12:55:40.602Z,26.61
2022-08-07T12:58:36.883Z,26.54
2022-08-07T13:01:45.249Z,26.58
2022-08-07T13:05:01.200Z,26.54
2022-08-07T13:08:12.265Z,26.36
2022-08-07T13:11:04.208Z,26.20
2022-08-07T13:14:12.549Z,25.94
2022-08-07T13:17:21.294Z,26.17
2022-08-07T13:20:29.097Z,26.29
2022-08-07T13:24:00.947Z,26.32
2022-08-07T13:26:46.395Z,26.08
2022-08-07T13:29:47.842Z,26.17
2022-08-07T13:32:45.409Z,26.54
2022-08-07T13:35:59.924Z,26.86
2022-08-07T13:38:54.553Z,26.73
2022-08-07T13:41:54.927Z,26.69
2022-08-07T13:44:57.650Z,26.98
2022-08-07T13:48:08.515Z,27.53
2022-08-07T13:51:27.371Z,27.86
2022-08-07T13:54:08.667Z,28.03
2022-08-07T13:57:22.427Z,28.03
2022-08-07T14:00:26.709Z,27.59
2022-08-07T14:03:30.042Z,27.33
2022-08-07T14:06:29.088Z,27.24
2022-08-07T14:10:01.402Z,27.32
2022-08-07T14:12:49.201Z,27.16
2022-08-07T14:15:50.792Z,26.76
2022-08-07T14:18:59.419Z,26.59
2022-08-07T14:22:10.627Z,26.28
2022-08-07T14:25:09.881Z,26.05
2022-08-07T14:28:19.299Z,25.98
2022-08-07T14:31:42.764Z,25.86
2022-08-07T14:34:33.033Z,25.91
2022-08-07T14:37:41.500Z,26.37
2022-08-07T14:40:50.508Z,26.31
2022-08-07T14:44:08.003Z,26.18
2022-08-07T14:50:11.500Z,25.68
2022-08-07T14:53:11.203Z,25.89
2022-08-07T14:56:13.043Z,25.94
2022-08-07T15:00:03.697Z,25.86
2022-08-07T15:02:34.091Z,25.99
2022-08-07T15:05:31.680Z,26.25
2022-08-07T15:08:50.083Z,26.32
2022-08-07T15:11:50.937Z,26.36
2022-08-07T15:14:57.796Z,26.36
2022-08-07T15:17:55.891Z,26.20
2022-08-07T15:21:08.171Z,26.22
2022-08-07T15:27:15.435Z,26.05
2022-08-07T15:30:23.462Z,25.98
2022-08-07T15:33:33.978Z,25.72
2022-08-07T15:37:04.686Z,25.57
2022-08-07T15:39:56.805Z,25.82
2022-08-07T15:42:47.902Z,25.94
2022-08-07T15:45:58.116Z,25.94
2022-08-07T15:55:08.859Z,26.65
2022-08-07T15:58:06.322Z,26.77
2022-08-07T16:01:09.488Z,26.68
2022-08-07T16:04:17.973Z,26.43
2022-08-07T16:08:32.663Z,26.09
2022-08-07T16:10:23.469Z,25.97
2022-08-07T16:13:58.471Z,25.91
2022-08-07T16:16:47.540Z,26.20
2022-08-07T16:19:59.811Z,26.28
2022-08-07T16:22:55.240Z,26.12
2022-08-07T16:25:55.058Z,25.98
2022-08-07T16:30:07.733Z,25.90
2022-08-07T16:32:00.678Z,25.97
2022-08-07T16:34:58.797Z,25.99
2022-08-07T16:38:09.494Z,25.86
2022-08-07T16:41:08.426Z,25.75
2022-08-07T16:44:46.924Z,25.61
2022-08-07T16:47:49.654Z,25.50
2022-08-07T16:50:39.052Z,25.49
2022-08-07T16:54:02.102Z,25.46
2022-08-07T16:56:40.563Z,25.31
2022-08-07T16:59:49.173Z,25.22
2022-08-07T17:03:04.707Z,25.13
2022-08-07T17:06:28.908Z,24.95
2022-08-07T17:09:10.861Z,24.79
2022-08-07T17:12:44.501Z,24.68
2022-08-07T17:15:11.942Z,24.56
2022-08-07T17:18:14.351Z,24.52
2022-08-07T17:21:23.261Z,24.44
2022-08-07T17:24:30.835Z,24.29
2022-08-07T17:27:39.445Z,24.23
2022-08-07T17:30:58.485Z,24.17
2022-08-07T17:34:18.226Z,24.08
2022-08-07T17:37:00.029Z,23.97
2022-08-07T17:40:05.421Z,23.87
2022-08-07T17:43:14.997Z,23.72
2022-08-07T17:46:10.355Z,23.53
2022-08-07T17:49:22.960Z,23.39
2022-08-07T17:52:20.834Z,23.20
2022-08-07T17:55:55.580Z,23.15
2022-08-07T17:58:31.776Z,22.99
2022-08-07T18:01:39.749Z,22.75
2022-08-07T18:04:48.040Z,22.50
2022-08-07T18:07:56.103Z,22.34
2022-08-07T18:12:07.824Z,22.20
2022-08-07T18:14:10.069Z,22.06
2022-08-07T18:17:14.158Z,21.92
2022-08-07T18:21:10.479Z,21.71
2022-08-07T18:23:43.030Z,21.54
2022-08-07T18:26:34.752Z,21.41
2022-08-07T18:30:06.531Z,21.23
2022-08-07T18:32:48.884Z,21.08
2022-08-07T18:35:57.235Z,20.93
2022-08-07T18:40:07.757Z,20.76
2022-08-07T18:42:13.038Z,20.54
2022-08-07T18:45:44.584Z,20.38
2022-08-07T18:50:19.616Z,20.25
2022-08-07T18:52:33.637Z,20.13
2022-08-07T18:54:37.378Z,20.00
2022-08-07T18:57:46.889Z,19.91
2022-08-07T19:00:50.295Z,19.79
2022-08-07T19:03:52.752Z,19.70
2022-08-07T19:07:01.057Z,19.57
2022-08-07T19:10:18.620Z,19.43
2022-08-07T19:13:21.971Z,19.33
2022-08-07T19:16:42.977Z,19.25
2022-08-07T19:19:28.008Z,19.20
2022-08-07T19:22:30.813Z,19.13
2022-08-07T19:26:25.216Z,19.01
2022-08-07T19:30:55.781Z,18.94
2022-08-07T19:32:11.433Z,18.84
2022-08-07T19:34:55.336Z,18.80
2022-08-07T19:38:03.691Z,18.73
2022-08-07T19:41:12.276Z,18.62
2022-08-07T19:44:21.359Z,18.54
2022-08-07T19:47:36.629Z,18.43
2022-08-07T19:50:43.779Z,18.33
2022-08-07T19:54:34.051Z,18.31
2022-08-07T19:58:00.841Z,18.27
2022-08-07T19:59:50.953Z,18.25
2022-08-07T20:03:00.640Z,18.24
2022-08-07T20:06:15.505Z,18.18
2022-08-07T20:10:33.487Z,18.06
2022-08-07T20:12:31.348Z,18.00
2022-08-07T20:15:32.961Z,17.92
2022-08-07T20:18:34.590Z,17.84
2022-08-07T20:21:47.777Z,17.76
2022-08-07T20:24:45.429Z,17.66
2022-08-07T20:27:58.389Z,17.62
2022-08-07T20:30:55.808Z,17.62
2022-08-07T20:34:05.624Z,17.63
2022-08-07T20:37:15.249Z,17.57
2022-08-07T20:40:33.149Z,17.55
2022-08-07T20:43:28.522Z,17.55
2022-08-07T20:46:43.714Z,17.50
2022-08-07T20:49:59.717Z,17.46
2022-08-07T20:52:51.369Z,17.36
2022-08-07T20:55:50.011Z,17.29
2022-08-07T20:59:00.182Z,17.25
2022-08-07T21:02:23.245Z,17.14
2022-08-07T21:05:16.342Z,17.11
2022-08-07T21:08:36.600Z,17.07
2022-08-07T21:11:46.063Z,16.99
2022-08-07T21:14:35.561Z,16.95
2022-08-07T21:18:04.020Z,16.90
2022-08-07T21:20:56.000Z,16.90
2022-08-07T21:23:52.911Z,16.86
2022-08-07T21:27:01.365Z,16.83
2022-08-07T21:30:03.934Z,16.80
2022-08-07T21:33:12.896Z,16.80
2022-08-07T21:36:31.103Z,16.88
2022-08-07T21:39:46.302Z,16.83
2022-08-07T21:42:48.384Z,16.78
2022-08-07T21:46:05.351Z,16.71
2022-08-07T21:48:43.798Z,16.63
2022-08-07T21:51:51.877Z,16.62
2022-08-07T21:54:49.969Z,16.60
2022-08-07T21:57:58.380Z,16.65
2022-08-07T22:01:08.433Z,16.68
2022-08-07T22:04:10.883Z,16.70
2022-08-07T22:07:19.333Z,16.68
2022-08-07T22:10:19.825Z,16.70
2022-08-07T22:13:52.759Z,16.73
2022-08-07T22:16:44.320Z,16.71
2022-08-07T22:19:38.256Z,16.67
2022-08-07T22:22:46.758Z,16.70
2022-08-07T22:25:56.842Z,16.62
2022-08-07T22:29:04.694Z,16.55
2022-08-07T22:32:06.658Z,16.41
2022-08-07T22:35:14.351Z,16.22
2022-08-07T22:38:25.815Z,16.11
2022-08-07T22:42:03.260Z,16.00
2022-08-07T22:44:41.499Z,15.89
2022-08-07T22:47:44.206Z,15.79
2022-08-07T22:50:46.347Z,15.67
2022-08-07T22:54:07.672Z,15.49
2022-08-07T22:57:00.594Z,15.45
2022-08-07T23:00:08.388Z,15.38
2022-08-07T23:03:16.458Z,15.48
2022-08-07T23:06:24.063Z,15.54
2022-08-07T23:10:03.890Z,15.51
2022-08-07T23:12:37.837Z,15.48
2022-08-07T23:16:05.857Z,15.59
2022-08-07T23:18:50.913Z,15.63
2022-08-07T23:21:58.595Z,15.56
2022-08-07T23:25:08.895Z,15.51
2022-08-07T23:28:21.157Z,15.56
2022-08-07T23:32:48.697Z,15.46
2022-08-07T23:34:38.040Z,15.38
2022-08-07T23:37:29.709Z,15.42
2022-08-07T23:40:37.559Z,15.42
2022-08-07T23:43:47.639Z,15.27
2022-08-07T23:46:49.508Z,15.17
2022-08-07T23:49:57.472Z,15.12
2022-08-07T23:53:08.596Z,15.20
2022-08-07T23:56:11.799Z,15.30
2022-08-07T23:59:10.525Z,15.28
